sensor_id;sensor_type;location;lat;lon;timestamp;pressure;altitude;pressure_sealevel;temperature;humidity
49945;BME280;35838;49.134;9.212;2023-03-23T00:01:00;99217.91;;;14.66;48.25
49945;BME280;35838;49.134;9.212;2023-03-23T00:02:31;99219.41;;;14.73;48.56
49945;BME280;35838;49.134;9.212;2023-03-23T00:04:08;99217.00;;;14.67;48.25
49945;BME280;35838;49.134;9.212;2023-03-23T00:05:42;99217.06;;;14.64;48.26
49945;BME280;35838;49.134;9.212;2023-03-23T00:07:22;99215.16;;;14.69;48.47
49945;BME280;35838;49.134;9.212;2023-03-23T00:08:58;99215.88;;;14.75;47.99
49945;BME280;35838;49.134;9.212;2023-03-23T00:10:34;99221.00;;;14.78;47.71
49945;BME280;35838;49.134;9.212;2023-03-23T00:12:06;99213.97;;;14.80;47.50
49945;BME280;35838;49.134;9.212;2023-03-23T00:13:39;99199.94;;;14.82;47.71
49945;BME280;35838;49.134;9.212;2023-03-23T00:15:11;99204.41;;;14.79;47.56
49945;BME280;35838;49.134;9.212;2023-03-23T00:16:47;99205.16;;;14.82;47.54
49945;BME280;35838;49.134;9.212;2023-03-23T00:18:21;99215.69;;;14.81;47.71
49945;BME280;35838;49.134;9.212;2023-03-23T00:19:55;99212.09;;;14.83;47.77
49945;BME280;35838;49.134;9.212;2023-03-23T00:21:29;99217.63;;;14.74;48.01
49945;BME280;35838;49.134;9.212;2023-03-23T00:23:06;99223.91;;;14.68;48.34
49945;BME280;35838;49.134;9.212;2023-03-23T00:24:40;99222.09;;;14.70;48.34
49945;BME280;35838;49.134;9.212;2023-03-23T00:26:14;99213.50;;;14.67;48.46
49945;BME280;35838;49.134;9.212;2023-03-23T00:27:48;99219.59;;;14.67;48.25
49945;BME280;35838;49.134;9.212;2023-03-23T00:29:22;99217.91;;;14.66;48.34
49945;BME280;35838;49.134;9.212;2023-03-23T00:30:56;99202.09;;;14.69;48.48
49945;BME280;35838;49.134;9.212;2023-03-23T00:32:30;99201.97;;;14.74;48.41
49945;BME280;35838;49.134;9.212;2023-03-23T00:34:04;99199.31;;;14.76;48.46
49945;BME280;35838;49.134;9.212;2023-03-23T00:35:38;99187.03;;;14.78;48.48
49945;BME280;35838;49.134;9.212;2023-03-23T00:37:11;99187.91;;;14.78;48.08
49945;BME280;35838;49.134;9.212;2023-03-23T00:38:46;99192.41;;;14.73;48.56
49945;BME280;35838;49.134;9.212;2023-03-23T00:40:20;99188.00;;;14.75;48.32
49945;BME280;35838;49.134;9.212;2023-03-23T00:41:54;99182.78;;;14.75;48.27
49945;BME280;35838;49.134;9.212;2023-03-23T00:43:31;99183.75;;;14.72;48.55
49945;BME280;35838;49.134;9.212;2023-03-23T00:45:06;99189.06;;;14.69;48.51
49945;BME280;35838;49.134;9.212;2023-03-23T00:46:42;99190.88;;;14.67;48.79
49945;BME280;35838;49.134;9.212;2023-03-23T00:48:19;99178.50;;;14.72;48.55
49945;BME280;35838;49.134;9.212;2023-03-23T00:49:52;99174.13;;;14.73;48.36
49945;BME280;35838;49.134;9.212;2023-03-23T00:51:29;99170.63;;;14.74;48.44
49945;BME280;35838;49.134;9.212;2023-03-23T00:53:02;99173.28;;;14.72;48.72
49945;BME280;35838;49.134;9.212;2023-03-23T00:54:36;99174.28;;;14.68;48.83
49945;BME280;35838;49.134;9.212;2023-03-23T00:56:10;99168.91;;;14.73;48.57
49945;BME280;35838;49.134;9.212;2023-03-23T00:57:44;99161.13;;;14.71;48.83
49945;BME280;35838;49.134;9.212;2023-03-23T00:59:19;99164.56;;;14.73;48.61
49945;BME280;35838;49.134;9.212;2023-03-23T01:00:53;99161.13;;;14.71;48.63
49945;BME280;35838;49.134;9.212;2023-03-23T01:02:27;99151.56;;;14.72;48.53
49945;BME280;35838;49.134;9.212;2023-03-23T01:04:01;99146.34;;;14.72;48.55
49945;BME280;35838;49.134;9.212;2023-03-23T01:05:35;99155.69;;;14.78;48.53
49945;BME280;35838;49.134;9.212;2023-03-23T01:07:11;99152.19;;;14.79;48.47
49945;BME280;35838;49.134;9.212;2023-03-23T01:08:48;99143.44;;;14.80;48.35
49945;BME280;35838;49.134;9.212;2023-03-23T01:10:24;99147.69;;;14.84;48.50
49945;BME280;35838;49.134;9.212;2023-03-23T01:11:58;99141.03;;;14.73;48.54
49945;BME280;35838;49.134;9.212;2023-03-23T01:13:32;99145.16;;;14.81;48.59
49945;BME280;35838;49.134;9.212;2023-03-23T01:15:03;99144.34;;;14.79;48.54
49945;BME280;35838;49.134;9.212;2023-03-23T01:16:37;99152.09;;;14.82;48.64
49945;BME280;35838;49.134;9.212;2023-03-23T01:18:11;99138.13;;;14.83;48.50
49945;BME280;35838;49.134;9.212;2023-03-23T01:19:44;99146.72;;;14.86;48.48
49945;BME280;35838;49.134;9.212;2023-03-23T01:21:19;99147.53;;;14.88;48.64
49945;BME280;35838;49.134;9.212;2023-03-23T01:22:55;99140.63;;;14.86;48.11
49945;BME280;35838;49.134;9.212;2023-03-23T01:24:31;99141.34;;;14.91;48.45
49945;BME280;35838;49.134;9.212;2023-03-23T01:26:05;99141.34;;;14.91;48.23
49945;BME280;35838;49.134;9.212;2023-03-23T01:27:39;99141.56;;;14.85;48.48
49945;BME280;35838;49.134;9.212;2023-03-23T01:29:10;99138.88;;;14.86;48.55
49945;BME280;35838;49.134;9.212;2023-03-23T01:30:44;99138.06;;;14.84;48.56
49945;BME280;35838;49.134;9.212;2023-03-23T01:32:17;99139.72;;;14.87;48.76
49945;BME280;35838;49.134;9.212;2023-03-23T01:33:51;99131.84;;;14.88;48.59
49945;BME280;35838;49.134;9.212;2023-03-23T01:35:26;99126.66;;;14.87;48.72
49945;BME280;35838;49.134;9.212;2023-03-23T01:36:57;99123.09;;;14.90;48.91
49945;BME280;35838;49.134;9.212;2023-03-23T01:38:33;99127.47;;;14.89;48.88
49945;BME280;35838;49.134;9.212;2023-03-23T01:40:05;99124.84;;;14.89;48.87
49945;BME280;35838;49.134;9.212;2023-03-23T01:41:39;99120.84;;;14.79;48.86
49945;BME280;35838;49.134;9.212;2023-03-23T01:43:13;99120.75;;;14.82;48.93
49945;BME280;35838;49.134;9.212;2023-03-23T01:46:34;99114.88;;;14.75;49.38
49945;BME280;35838;49.134;9.212;2023-03-23T01:48:10;99121.75;;;14.78;49.23
49945;BME280;35838;49.134;9.212;2023-03-23T01:49:44;99120.00;;;14.78;49.42
49945;BME280;35838;49.134;9.212;2023-03-23T01:51:19;99123.56;;;14.76;49.46
49945;BME280;35838;49.134;9.212;2023-03-23T01:52:54;99121.97;;;14.71;49.60
49945;BME280;35838;49.134;9.212;2023-03-23T01:54:31;99116.88;;;14.67;49.60
49945;BME280;35838;49.134;9.212;2023-03-23T01:56:06;99120.38;;;14.67;49.75
49945;BME280;35838;49.134;9.212;2023-03-23T01:57:41;99116.03;;;14.66;49.73
49945;BME280;35838;49.134;9.212;2023-03-23T01:59:12;99119.41;;;14.70;49.88
49945;BME280;35838;49.134;9.212;2023-03-23T02:00:47;99119.53;;;14.65;49.95
49945;BME280;35838;49.134;9.212;2023-03-23T02:02:21;99119.50;;;14.67;50.00
49945;BME280;35838;49.134;9.212;2023-03-23T02:03:55;99122.97;;;14.67;50.23
49945;BME280;35838;49.134;9.212;2023-03-23T02:05:30;99125.88;;;14.58;49.96
49945;BME280;35838;49.134;9.212;2023-03-23T02:07:06;99118.03;;;14.58;49.91
49945;BME280;35838;49.134;9.212;2023-03-23T02:08:37;99118.03;;;14.58;50.10
49945;BME280;35838;49.134;9.212;2023-03-23T02:10:14;99119.72;;;14.59;50.11
49945;BME280;35838;49.134;9.212;2023-03-23T02:11:48;99116.16;;;14.62;49.96
49945;BME280;35838;49.134;9.212;2023-03-23T02:13:22;99116.19;;;14.60;50.16
49945;BME280;35838;49.134;9.212;2023-03-23T02:14:55;99114.41;;;14.62;49.79
49945;BME280;35838;49.134;9.212;2023-03-23T02:16:31;99117.00;;;14.62;49.92
49945;BME280;35838;49.134;9.212;2023-03-23T02:18:07;99105.66;;;14.63;49.70
49945;BME280;35838;49.134;9.212;2023-03-23T02:19:43;99103.94;;;14.62;49.82
49945;BME280;35838;49.134;9.212;2023-03-23T02:23:25;99106.28;;;14.71;49.81
49945;BME280;35838;49.134;9.212;2023-03-23T02:25:10;99101.16;;;14.68;50.06
49945;BME280;35838;49.134;9.212;2023-03-23T02:26:56;99093.22;;;14.71;49.71
49945;BME280;35838;49.134;9.212;2023-03-23T02:28:40;99088.28;;;14.62;49.60
49945;BME280;35838;49.134;9.212;2023-03-23T02:30:31;99082.88;;;14.68;49.68
49945;BME280;35838;49.134;9.212;2023-03-23T02:32:12;99090.38;;;14.51;50.15
49945;BME280;35838;49.134;9.212;2023-03-23T02:33:51;99090.16;;;14.58;50.03
49945;BME280;35838;49.134;9.212;2023-03-23T02:35:28;99081.19;;;14.66;49.80
49945;BME280;35838;49.134;9.212;2023-03-23T02:37:04;99077.66;;;14.68;49.77
49945;BME280;35838;49.134;9.212;2023-03-23T02:38:42;99078.59;;;14.66;49.57
49945;BME280;35838;49.134;9.212;2023-03-23T02:40:22;99071.78;;;14.62;49.80
49945;BME280;35838;49.134;9.212;2023-03-23T02:41:59;99066.38;;;14.68;49.65
49945;BME280;35838;49.134;9.212;2023-03-23T02:43:35;99064.56;;;14.70;49.56
49945;BME280;35838;49.134;9.212;2023-03-23T02:45:11;99063.03;;;14.63;49.33
49945;BME280;35838;49.134;9.212;2023-03-23T02:46:47;99056.75;;;14.68;49.64
49945;BME280;35838;49.134;9.212;2023-03-23T02:48:19;99054.91;;;14.72;49.38
49945;BME280;35838;49.134;9.212;2023-03-23T02:49:57;99063.69;;;14.69;49.57
49945;BME280;35838;49.134;9.212;2023-03-23T02:51:32;99052.31;;;14.72;49.58
49945;BME280;35838;49.134;9.212;2023-03-23T02:53:03;99054.84;;;14.73;49.50
49945;BME280;35838;49.134;9.212;2023-03-23T02:54:40;99055.00;;;14.69;49.80
49945;BME280;35838;49.134;9.212;2023-03-23T02:56:15;99050.63;;;14.69;49.66
49945;BME280;35838;49.134;9.212;2023-03-23T02:57:49;99053.16;;;14.72;49.78
49945;BME280;35838;49.134;9.212;2023-03-23T02:59:24;99045.31;;;14.72;49.69
49945;BME280;35838;49.134;9.212;2023-03-23T03:00:56;99048.66;;;14.76;49.63
49945;BME280;35838;49.134;9.212;2023-03-23T03:02:29;99046.91;;;14.77;49.34
49945;BME280;35838;49.134;9.212;2023-03-23T03:04:03;99051.19;;;14.79;49.55
49945;BME280;35838;49.134;9.212;2023-03-23T03:05:40;99050.88;;;14.62;49.74
49945;BME280;35838;49.134;9.212;2023-03-23T03:09:03;99037.69;;;14.66;49.68
49945;BME280;35838;49.134;9.212;2023-03-23T03:10:43;99034.97;;;14.69;49.48
49945;BME280;35838;49.134;9.212;2023-03-23T03:12:19;99036.56;;;14.73;49.30
49945;BME280;35838;49.134;9.212;2023-03-23T03:13:55;99041.97;;;14.69;49.22
49945;BME280;35838;49.134;9.212;2023-03-23T03:15:33;99044.41;;;14.73;49.63
49945;BME280;35838;49.134;9.212;2023-03-23T03:17:10;99048.75;;;14.73;49.61
49945;BME280;35838;49.134;9.212;2023-03-23T03:18:44;99045.53;;;14.66;49.37
49945;BME280;35838;49.134;9.212;2023-03-23T03:20:19;99043.88;;;14.62;49.40
49945;BME280;35838;49.134;9.212;2023-03-23T03:21:55;99037.75;;;14.63;49.34
49945;BME280;35838;49.134;9.212;2023-03-23T03:23:29;99034.97;;;14.69;49.23
49945;BME280;35838;49.134;9.212;2023-03-23T03:25:05;99036.66;;;14.70;49.44
49945;BME280;35838;49.134;9.212;2023-03-23T03:26:40;99034.94;;;14.71;49.42
49945;BME280;35838;49.134;9.212;2023-03-23T03:28:18;99033.31;;;14.67;49.55
49945;BME280;35838;49.134;9.212;2023-03-23T03:29:54;99042.03;;;14.67;49.51
49945;BME280;35838;49.134;9.212;2023-03-23T03:31:29;99040.31;;;14.66;49.65
49945;BME280;35838;49.134;9.212;2023-03-23T03:33:05;99042.97;;;14.63;49.77
49945;BME280;35838;49.134;9.212;2023-03-23T03:34:38;99046.59;;;14.59;49.84
49945;BME280;35838;49.134;9.212;2023-03-23T03:36:14;99045.09;;;14.52;50.08
49945;BME280;35838;49.134;9.212;2023-03-23T03:37:51;99040.75;;;14.52;49.58
49945;BME280;35838;49.134;9.212;2023-03-23T03:39:25;99046.97;;;14.48;49.41
49945;BME280;35838;49.134;9.212;2023-03-23T03:40:57;99039.09;;;14.50;49.50
49945;BME280;35838;49.134;9.212;2023-03-23T03:42:30;99051.28;;;14.49;49.66
49945;BME280;35838;49.134;9.212;2023-03-23T03:44:02;99049.56;;;14.48;49.68
49945;BME280;35838;49.134;9.212;2023-03-23T03:45:35;99045.09;;;14.52;49.69
49945;BME280;35838;49.134;9.212;2023-03-23T03:47:09;99044.03;;;14.57;49.72
49945;BME280;35838;49.134;9.212;2023-03-23T03:48:40;99039.56;;;14.61;49.59
49945;BME280;35838;49.134;9.212;2023-03-23T03:50:13;99040.69;;;14.54;49.59
49945;BME280;35838;49.134;9.212;2023-03-23T03:51:44;99040.47;;;14.60;49.89
49945;BME280;35838;49.134;9.212;2023-03-23T03:53:21;99042.97;;;14.63;49.51
49945;BME280;35838;49.134;9.212;2023-03-23T03:54:54;99031.88;;;14.58;49.46
49945;BME280;35838;49.134;9.212;2023-03-23T03:56:28;99032.63;;;14.60;49.49
49945;BME280;35838;49.134;9.212;2023-03-23T03:58:02;99039.69;;;14.58;49.58
49945;BME280;35838;49.134;9.212;2023-03-23T03:59:37;99029.25;;;14.58;49.41
49945;BME280;35838;49.134;9.212;2023-03-23T04:01:09;99037.84;;;14.60;49.20
49945;BME280;35838;49.134;9.212;2023-03-23T04:02:43;99032.63;;;14.60;49.52
49945;BME280;35838;49.134;9.212;2023-03-23T04:04:17;99041.38;;;14.59;49.39
49945;BME280;35838;49.134;9.212;2023-03-23T04:05:52;99039.78;;;14.55;49.49
49945;BME280;35838;49.134;9.212;2023-03-23T04:07:26;99051.72;;;14.62;49.36
49945;BME280;35838;49.134;9.212;2023-03-23T04:09:03;99057.03;;;14.59;49.64
49945;BME280;35838;49.134;9.212;2023-03-23T04:10:38;99048.75;;;14.48;49.48
49945;BME280;35838;49.134;9.212;2023-03-23T04:12:12;99060.03;;;14.48;49.91
49945;BME280;35838;49.134;9.212;2023-03-23T04:13:45;99052.03;;;14.53;49.82
49945;BME280;35838;49.134;9.212;2023-03-23T04:15:19;99052.03;;;14.53;49.86
49945;BME280;35838;49.134;9.212;2023-03-23T04:16:50;99045.75;;;14.58;49.85
49945;BME280;35838;49.134;9.212;2023-03-23T04:18:27;99041.66;;;14.51;50.07
49945;BME280;35838;49.134;9.212;2023-03-23T04:20:03;99046.88;;;14.51;50.17
49945;BME280;35838;49.134;9.212;2023-03-23T04:21:43;99052.16;;;14.50;50.30
49945;BME280;35838;49.134;9.212;2023-03-23T04:23:20;99048.00;;;14.44;50.32
49945;BME280;35838;49.134;9.212;2023-03-23T04:24:56;99040.91;;;14.48;50.17
49945;BME280;35838;49.134;9.212;2023-03-23T04:26:29;99040.69;;;14.54;50.30
49945;BME280;35838;49.134;9.212;2023-03-23T04:28:03;99046.59;;;14.59;50.13
49945;BME280;35838;49.134;9.212;2023-03-23T04:29:37;99047.56;;;14.56;50.19
49945;BME280;35838;49.134;9.212;2023-03-23T04:31:11;99053.66;;;14.57;50.26
49945;BME280;35838;49.134;9.212;2023-03-23T04:32:45;99043.53;;;14.48;50.30
49945;BME280;35838;49.134;9.212;2023-03-23T04:34:21;99042.72;;;14.46;50.50
49945;BME280;35838;49.134;9.212;2023-03-23T04:35:55;99034.06;;;14.44;50.40
49945;BME280;35838;49.134;9.212;2023-03-23T04:37:29;99036.59;;;14.47;50.53
49945;BME280;35838;49.134;9.212;2023-03-23T04:39:02;99036.53;;;14.48;50.45
49945;BME280;35838;49.134;9.212;2023-03-23T04:40:40;99036.75;;;14.42;50.67
49945;BME280;35838;49.134;9.212;2023-03-23T04:42:14;99038.28;;;14.48;50.72
49945;BME280;35838;49.134;9.212;2023-03-23T04:43:47;99042.47;;;14.53;50.63
49945;BME280;35838;49.134;9.212;2023-03-23T04:45:22;99047.69;;;14.53;50.75
49945;BME280;35838;49.134;9.212;2023-03-23T04:46:56;99046.94;;;14.50;50.97
49945;BME280;35838;49.134;9.212;2023-03-23T04:48:31;99051.44;;;14.45;51.35
49945;BME280;35838;49.134;9.212;2023-03-23T04:50:07;99060.63;;;14.30;51.76
49945;BME280;35838;49.134;9.212;2023-03-23T04:51:38;99055.53;;;14.26;52.13
49945;BME280;35838;49.134;9.212;2023-03-23T04:53:12;99056.38;;;14.27;52.23
49945;BME280;35838;49.134;9.212;2023-03-23T04:54:48;99058.78;;;14.33;52.53
49945;BME280;35838;49.134;9.212;2023-03-23T04:56:21;99054.34;;;14.35;52.54
49945;BME280;35838;49.134;9.212;2023-03-23T04:57:55;99052.72;;;14.33;52.51
49945;BME280;35838;49.134;9.212;2023-03-23T04:59:30;99061.28;;;14.36;52.47
49945;BME280;35838;49.134;9.212;2023-03-23T05:01:04;99057.78;;;14.37;52.65
49945;BME280;35838;49.134;9.212;2023-03-23T05:02:38;99057.69;;;14.40;52.41
49945;BME280;35838;49.134;9.212;2023-03-23T05:04:10;99056.38;;;14.27;52.38
49945;BME280;35838;49.134;9.212;2023-03-23T05:05:44;99049.44;;;14.26;52.46
49945;BME280;35838;49.134;9.212;2023-03-23T05:07:22;99052.31;;;14.18;52.32
49945;BME280;35838;49.134;9.212;2023-03-23T05:08:56;99055.78;;;14.19;52.10
49945;BME280;35838;49.134;9.212;2023-03-23T05:10:27;99048.16;;;14.13;52.16
49945;BME280;35838;49.134;9.212;2023-03-23T05:12:06;99055.06;;;14.14;52.24
49945;BME280;35838;49.134;9.212;2023-03-23T05:13:40;99045.41;;;14.16;52.42
49945;BME280;35838;49.134;9.212;2023-03-23T05:15:15;99046.97;;;14.21;52.04
49945;BME280;35838;49.134;9.212;2023-03-23T05:16:49;99051.16;;;14.27;51.90
49945;BME280;35838;49.134;9.212;2023-03-23T05:18:20;99044.13;;;14.29;51.72
49945;BME280;35838;49.134;9.212;2023-03-23T05:19:54;99050.41;;;14.23;51.90
49945;BME280;35838;49.134;9.212;2023-03-23T05:21:27;99047.56;;;14.31;52.02
49945;BME280;35838;49.134;9.212;2023-03-23T05:23:01;99050.75;;;14.39;51.73
49945;BME280;35838;49.134;9.212;2023-03-23T05:24:35;99048.97;;;14.40;51.80
49945;BME280;35838;49.134;9.212;2023-03-23T05:26:06;99058.59;;;14.39;51.64
49945;BME280;35838;49.134;9.212;2023-03-23T05:27:42;99060.53;;;14.33;51.65
49945;BME280;35838;49.134;9.212;2023-03-23T05:29:19;99062.94;;;14.39;51.90
49945;BME280;35838;49.134;9.212;2023-03-23T05:30:54;99061.78;;;14.48;51.83
49945;BME280;35838;49.134;9.212;2023-03-23T05:32:28;99059.19;;;14.48;52.10
49945;BME280;35838;49.134;9.212;2023-03-23T05:34:02;99052.09;;;14.51;52.14
49945;BME280;35838;49.134;9.212;2023-03-23T05:35:36;99058.16;;;14.25;52.55
49945;BME280;35838;49.134;9.212;2023-03-23T05:37:07;99059.88;;;14.26;52.66
49945;BME280;35838;49.134;9.212;2023-03-23T05:38:41;99056.38;;;14.27;53.01
49945;BME280;35838;49.134;9.212;2023-03-23T05:40:16;99051.56;;;14.15;53.16
49945;BME280;35838;49.134;9.212;2023-03-23T05:41:50;99049.44;;;14.26;52.98
49945;BME280;35838;49.134;9.212;2023-03-23T05:43:26;99055.06;;;14.40;53.47
49945;BME280;35838;49.134;9.212;2023-03-23T05:45:00;99052.25;;;14.47;53.14
49945;BME280;35838;49.134;9.212;2023-03-23T05:46:34;99059.78;;;14.56;52.99
49945;BME280;35838;49.134;9.212;2023-03-23T05:48:07;99061.25;;;14.63;52.53
49945;BME280;35838;49.134;9.212;2023-03-23T05:49:41;99064.44;;;14.73;52.61
49945;BME280;35838;49.134;9.212;2023-03-23T05:51:12;99069.63;;;14.75;52.23
49945;BME280;35838;49.134;9.212;2023-03-23T05:52:46;99065.81;;;14.83;54.05
49945;BME280;35838;49.134;9.212;2023-03-23T05:54:21;99073.63;;;14.85;52.35
49945;BME280;35838;49.134;9.212;2023-03-23T05:55:57;99086.16;;;15.00;54.75
49945;BME280;35838;49.134;9.212;2023-03-23T05:57:31;99090.47;;;15.01;53.88
49945;BME280;35838;49.134;9.212;2023-03-23T05:59:07;99090.47;;;15.01;53.36
49945;BME280;35838;49.134;9.212;2023-03-23T06:00:41;99099.09;;;15.03;53.82
49945;BME280;35838;49.134;9.212;2023-03-23T06:02:15;99096.78;;;14.94;52.77
49945;BME280;35838;49.134;9.212;2023-03-23T06:03:49;99107.22;;;14.96;52.83
49945;BME280;35838;49.134;9.212;2023-03-23T06:05:24;99110.19;;;14.85;53.29
49945;BME280;35838;49.134;9.212;2023-03-23T06:07:00;99125.66;;;14.91;54.17
49945;BME280;35838;49.134;9.212;2023-03-23T06:08:34;99118.50;;;14.96;53.70
49945;BME280;35838;49.134;9.212;2023-03-23T06:10:08;99119.38;;;14.97;53.64
49945;BME280;35838;49.134;9.212;2023-03-23T06:11:42;99119.63;;;14.89;53.07
49945;BME280;35838;49.134;9.212;2023-03-23T06:13:16;99127.31;;;14.94;53.40
49945;BME280;35838;49.134;9.212;2023-03-23T06:14:52;99124.75;;;14.92;53.22
49945;BME280;35838;49.134;9.212;2023-03-23T06:16:25;99119.47;;;14.94;53.09
49945;BME280;35838;49.134;9.212;2023-03-23T06:17:59;99126.63;;;14.88;52.83
49945;BME280;35838;49.134;9.212;2023-03-23T06:19:33;99130.75;;;14.94;53.13
49945;BME280;35838;49.134;9.212;2023-03-23T06:21:07;99123.13;;;14.88;53.71
49945;BME280;35838;49.134;9.212;2023-03-23T06:22:41;99134.56;;;14.85;53.01
49945;BME280;35838;49.134;9.212;2023-03-23T06:24:15;99137.81;;;14.92;54.15
49945;BME280;35838;49.134;9.212;2023-03-23T06:25:48;99136.63;;;15.01;53.53
49945;BME280;35838;49.134;9.212;2023-03-23T06:27:22;99138.28;;;15.03;53.11
49945;BME280;35838;49.134;9.212;2023-03-23T06:28:56;99142.50;;;15.08;53.27
49945;BME280;35838;49.134;9.212;2023-03-23T06:30:32;99141.31;;;15.16;53.89
49945;BME280;35838;49.134;9.212;2023-03-23T06:32:05;99150.84;;;15.19;53.29
49945;BME280;35838;49.134;9.212;2023-03-23T06:33:40;99149.41;;;15.34;53.85
49945;BME280;35838;49.134;9.212;2023-03-23T06:35:14;99145.88;;;15.37;53.21
49945;BME280;35838;49.134;9.212;2023-03-23T06:36:48;99156.91;;;15.45;53.13
49945;BME280;35838;49.134;9.212;2023-03-23T06:38:22;99144.41;;;15.28;53.03
49945;BME280;35838;49.134;9.212;2023-03-23T06:39:56;99146.13;;;15.29;53.35
49945;BME280;35838;49.134;9.212;2023-03-23T06:41:31;99145.69;;;15.16;53.29
49945;BME280;35838;49.134;9.212;2023-03-23T06:43:05;99148.53;;;15.10;53.89
49945;BME280;35838;49.134;9.212;2023-03-23T06:44:38;99154.22;;;15.21;54.76
49945;BME280;35838;49.134;9.212;2023-03-23T06:46:14;99150.53;;;15.27;54.44
49945;BME280;35838;49.134;9.212;2023-03-23T06:47:48;99155.84;;;15.25;54.12
49945;BME280;35838;49.134;9.212;2023-03-23T06:49:19;99147.09;;;15.26;54.34
49945;BME280;35838;49.134;9.212;2023-03-23T06:50:53;99154.84;;;15.29;54.14
49945;BME280;35838;49.134;9.212;2023-03-23T06:52:27;99151.25;;;15.32;54.10
49945;BME280;35838;49.134;9.212;2023-03-23T06:54:00;99148.00;;;15.25;54.35
49945;BME280;35838;49.134;9.212;2023-03-23T06:55:34;99149.00;;;15.21;54.36
49945;BME280;35838;49.134;9.212;2023-03-23T06:57:08;99143.91;;;15.18;54.99
49945;BME280;35838;49.134;9.212;2023-03-23T06:58:42;99144.09;;;15.12;54.58
49945;BME280;35838;49.134;9.212;2023-03-23T07:00:16;99143.31;;;15.10;54.38
49945;BME280;35838;49.134;9.212;2023-03-23T07:01:52;99140.91;;;15.03;54.57
49945;BME280;35838;49.134;9.212;2023-03-23T07:03:26;99143.41;;;15.07;54.38
49945;BME280;35838;49.134;9.212;2023-03-23T07:05:01;99143.91;;;15.18;54.33
49945;BME280;35838;49.134;9.212;2023-03-23T07:06:35;99149.22;;;15.15;54.63
49945;BME280;35838;49.134;9.212;2023-03-23T07:08:09;99150.88;;;15.17;54.57
49945;BME280;35838;49.134;9.212;2023-03-23T07:09:42;99143.75;;;15.21;54.18
49945;BME280;35838;49.134;9.212;2023-03-23T07:11:16;99151.59;;;15.21;54.14
49945;BME280;35838;49.134;9.212;2023-03-23T07:12:50;99152.75;;;15.14;54.33
49945;BME280;35838;49.134;9.212;2023-03-23T07:14:23;99158.78;;;15.16;54.47
49945;BME280;35838;49.134;9.212;2023-03-23T07:15:57;99167.75;;;15.09;54.96
49945;BME280;35838;49.134;9.212;2023-03-23T07:17:33;99171.91;;;15.14;54.84
49945;BME280;35838;49.134;9.212;2023-03-23T07:19:07;99169.59;;;15.05;55.15
49945;BME280;35838;49.134;9.212;2023-03-23T07:20:41;99173.97;;;15.04;55.07
49945;BME280;35838;49.134;9.212;2023-03-23T07:22:15;99173.88;;;15.08;55.00
49945;BME280;35838;49.134;9.212;2023-03-23T07:23:48;99180.09;;;14.77;55.43
49945;BME280;35838;49.134;9.212;2023-03-23T07:25:22;99186.94;;;14.81;55.43
49945;BME280;35838;49.134;9.212;2023-03-23T07:26:55;99186.69;;;14.60;56.18
49945;BME280;35838;49.134;9.212;2023-03-23T07:28:29;99180.50;;;14.64;55.83
49945;BME280;35838;49.134;9.212;2023-03-23T07:30:03;99198.00;;;14.61;56.19
49945;BME280;35838;49.134;9.212;2023-03-23T07:31:38;99201.31;;;14.66;56.11
49945;BME280;35838;49.134;9.212;2023-03-23T07:33:14;99203.63;;;14.77;56.10
49945;BME280;35838;49.134;9.212;2023-03-23T07:34:47;99212.81;;;14.60;56.38
49945;BME280;35838;49.134;9.212;2023-03-23T07:36:21;99208.59;;;14.56;56.72
49945;BME280;35838;49.134;9.212;2023-03-23T07:37:55;99216.09;;;14.38;57.00
49945;BME280;35838;49.134;9.212;2023-03-23T07:39:29;99217.22;;;14.30;57.48
49945;BME280;35838;49.134;9.212;2023-03-23T07:41:04;99229.38;;;14.31;57.80
49945;BME280;35838;49.134;9.212;2023-03-23T07:42:37;99224.56;;;14.47;57.72
49945;BME280;35838;49.134;9.212;2023-03-23T07:44:08;99236.56;;;14.52;57.69
49945;BME280;35838;49.134;9.212;2023-03-23T07:45:42;99231.38;;;14.51;57.67
49945;BME280;35838;49.134;9.212;2023-03-23T07:47:16;99226.81;;;14.57;57.61
49945;BME280;35838;49.134;9.212;2023-03-23T07:48:52;99223.53;;;14.52;58.22
49945;BME280;35838;49.134;9.212;2023-03-23T07:50:27;99220.44;;;14.39;58.47
49945;BME280;35838;49.134;9.212;2023-03-23T07:52:01;99226.34;;;14.45;58.35
49945;BME280;35838;49.134;9.212;2023-03-23T07:53:35;99224.28;;;14.56;58.55
49945;BME280;35838;49.134;9.212;2023-03-23T07:55:10;99223.03;;;14.39;58.91
49945;BME280;35838;49.134;9.212;2023-03-23T07:56:48;99229.56;;;14.53;59.04
49945;BME280;35838;49.134;9.212;2023-03-23T07:58:21;99234.00;;;14.51;58.97
49945;BME280;35838;49.134;9.212;2023-03-23T07:59:56;99228.47;;;14.60;59.35
49945;BME280;35838;49.134;9.212;2023-03-23T08:01:30;99231.06;;;14.62;58.98
49945;BME280;35838;49.134;9.212;2023-03-23T08:03:04;99243.25;;;14.61;58.83
49945;BME280;35838;49.134;9.212;2023-03-23T08:04:41;99247.84;;;14.54;58.43
49945;BME280;35838;49.134;9.212;2023-03-23T08:06:15;99253.22;;;14.48;58.51
49945;BME280;35838;49.134;9.212;2023-03-23T08:07:49;99248.25;;;14.40;58.61
49945;BME280;35838;49.134;9.212;2023-03-23T08:09:24;99249.22;;;14.36;59.14
49945;BME280;35838;49.134;9.212;2023-03-23T08:10:57;99248.91;;;14.47;59.20
49945;BME280;35838;49.134;9.212;2023-03-23T08:12:31;99257.81;;;14.40;59.22
49945;BME280;35838;49.134;9.212;2023-03-23T08:14:04;99256.59;;;14.52;59.56
49945;BME280;35838;49.134;9.212;2023-03-23T08:15:38;99252.84;;;14.32;59.82
49945;BME280;35838;49.134;9.212;2023-03-23T08:17:12;99269.03;;;14.44;60.43
49945;BME280;35838;49.134;9.212;2023-03-23T08:18:45;99262.09;;;14.42;60.52
49945;BME280;35838;49.134;9.212;2023-03-23T08:20:22;99259.41;;;14.46;60.21
49945;BME280;35838;49.134;9.212;2023-03-23T08:21:56;99273.72;;;14.32;60.43
